sensor_id;sensor_type;location;lat;lon;timestamp;pressure;altitude;pressure_sealevel;temperature;humidity
39491;BME280;25175;50.140;18.990;2023-04-21T00:02:12;98666.97;;;9.47;56.28
39491;BME280;25175;50.140;18.990;2023-04-21T00:08:43;98669.53;;;9.34;56.71
39491;BME280;25175;50.140;18.990;2023-04-21T00:11:52;98665.09;;;9.28;56.72
39491;BME280;25175;50.140;18.990;2023-04-21T00:14:58;98666.28;;;9.25;56.64
39491;BME280;25175;50.140;18.990;2023-04-21T00:18:16;98666.47;;;9.24;56.60
39491;BME280;25175;50.140;18.990;2023-04-21T00:21:21;98659.44;;;9.24;56.30
39491;BME280;25175;50.140;18.990;2023-04-21T00:24:48;98667.25;;;9.18;56.68
39491;BME280;25175;50.140;18.990;2023-04-21T00:27:56;98662.16;;;9.03;57.34
39491;BME280;25175;50.140;18.990;2023-04-21T00:31:02;98659.69;;;8.95;57.69
39491;BME280;25175;50.140;18.990;2023-04-21T00:34:32;98656.44;;;8.87;57.98
39491;BME280;25175;50.140;18.990;2023-04-21T00:37:45;98660.97;;;8.78;58.19
39491;BME280;25175;50.140;18.990;2023-04-21T00:40:58;98653.06;;;8.65;58.53
39491;BME280;25175;50.140;18.990;2023-04-21T00:44:19;98653.75;;;8.53;58.87
39491;BME280;25175;50.140;18.990;2023-04-21T00:47:58;98659.31;;;8.43;59.13
39491;BME280;25175;50.140;18.990;2023-04-21T00:51:09;98650.00;;;8.34;59.47
39491;BME280;25175;50.140;18.990;2023-04-21T00:54:16;98656.63;;;8.37;59.40
39491;BME280;25175;50.140;18.990;2023-04-21T00:57:38;98657.88;;;8.41;58.76
39491;BME280;25175;50.140;18.990;2023-04-21T01:01:07;98649.69;;;8.44;58.50
39491;BME280;25175;50.140;18.990;2023-04-21T01:04:19;98620.13;;;8.22;58.64
39491;BME280;25175;50.140;18.990;2023-04-21T01:07:27;98653.66;;;8.40;58.72
39491;BME280;25175;50.140;18.990;2023-04-21T01:10:42;98648.25;;;8.41;58.40
39491;BME280;25175;50.140;18.990;2023-04-21T01:13:47;98658.28;;;8.38;58.49
39491;BME280;25175;50.140;18.990;2023-04-21T01:17:02;98639.09;;;8.31;58.81
39491;BME280;25175;50.140;18.990;2023-04-21T01:20:14;98648.69;;;8.24;59.14
39491;BME280;25175;50.140;18.990;2023-04-21T01:23:38;98654.69;;;8.18;59.56
39491;BME280;25175;50.140;18.990;2023-04-21T01:26:44;98655.81;;;8.09;59.41
39491;BME280;25175;50.140;18.990;2023-04-21T01:29:51;98623.09;;;7.92;59.64
39491;BME280;25175;50.140;18.990;2023-04-21T01:32:56;98663.09;;;8.13;58.83
39491;BME280;25175;50.140;18.990;2023-04-21T01:39:31;98651.75;;;8.06;58.34
39491;BME280;25175;50.140;18.990;2023-04-21T01:42:40;98649.59;;;7.89;58.72
39491;BME280;25175;50.140;18.990;2023-04-21T01:45:47;98643.19;;;7.70;59.54
39491;BME280;25175;50.140;18.990;2023-04-21T01:48:53;98652.38;;;7.66;59.72
39491;BME280;25175;50.140;18.990;2023-04-21T01:51:59;98658.25;;;7.68;59.42
39491;BME280;25175;50.140;18.990;2023-04-21T01:55:23;98653.25;;;7.73;58.97
39491;BME280;25175;50.140;18.990;2023-04-21T01:58:30;98652.53;;;7.79;58.66
39491;BME280;25175;50.140;18.990;2023-04-21T02:01:42;98648.72;;;7.82;58.38
39491;BME280;25175;50.140;18.990;2023-04-21T02:04:51;98653.56;;;7.85;58.51
39491;BME280;25175;50.140;18.990;2023-04-21T02:07:57;98656.00;;;7.86;58.27
39491;BME280;25175;50.140;18.990;2023-04-21T02:11:09;98656.38;;;7.83;58.78
39491;BME280;25175;50.140;18.990;2023-04-21T02:14:15;98659.38;;;7.80;59.21
39491;BME280;25175;50.140;18.990;2023-04-21T02:17:32;98653.13;;;7.81;59.00
39491;BME280;25175;50.140;18.990;2023-04-21T02:20:37;98652.72;;;7.78;59.39
39491;BME280;25175;50.140;18.990;2023-04-21T02:23:44;98645.88;;;7.77;59.66
39491;BME280;25175;50.140;18.990;2023-04-21T02:26:55;98650.72;;;7.80;59.61
39491;BME280;25175;50.140;18.990;2023-04-21T02:30:05;98610.50;;;7.60;59.90
39491;BME280;25175;50.140;18.990;2023-04-21T02:33:12;98651.28;;;7.75;60.36
39491;BME280;25175;50.140;18.990;2023-04-21T02:36:32;98652.47;;;7.73;60.78
39491;BME280;25175;50.140;18.990;2023-04-21T02:39:44;98652.19;;;7.68;61.04
39491;BME280;25175;50.140;18.990;2023-04-21T02:43:07;98681.03;;;7.60;61.21
39491;BME280;25175;50.140;18.990;2023-04-21T23:45:55;98406.63;;;8.89;47.84
39491;BME280;25175;50.140;18.990;2023-04-21T23:49:01;98395.75;;;8.86;47.38
39491;BME280;25175;50.140;18.990;2023-04-21T23:55:33;98190.53;;;7.57;47.07
39491;BME280;25175;50.140;18.990;2023-04-21T23:58:38;98392.53;;;8.77;46.75
